
<gpx xmlns="http://www.topografix.com/GPX/1/1" xmlns:gpxx="http://www.garmin.com/xmlschemas/GpxExtensions/v3" xmlns:xsi="http://www.w3.org/2001/XMLSchema-instance" version="1.1" creator="Adze - https://getadze.com/" xsi:schemaLocation="http://www.topografix.com/GPX/1/1 http://www.topografix.com/GPX/1/1/gpx.xsd http://www.garmin.com/xmlschemas/GpxExtensions/v3 http://www.garmin.com/xmlschemas/GpxExtensionsv3.xsd">
    <metadata>
        <name>Untitled Document</name>
        <link href="http://www.garmin.com"></link>
        <time>2018-03-08T10:19:42.792Z</time>
    </metadata>
    <wpt lon="99.679512" lat="12.899518">
        <ele>111.000000</ele>
        <name>KaengKrachanResort</name>
        <cmt>28-JAN-11 15:19:33</cmt>
        <desc>28-JAN-11 15:19:33</desc>
        <sym>Lodging</sym>
        <extensions>
            <gpxx:WaypointExtension xmlns:gpxx="http://www.garmin.com/xmlschemas/GpxExtensions/v3">
                <gpxx:DisplayMode>SymbolOnly</gpxx:DisplayMode>
            </gpxx:WaypointExtension>
        </extensions>
    </wpt>
    <wpt lon="99.649271" lat="12.906356">
        <ele>61.000000</ele>
        <name>January 2011 - Sunday water</name>
        <cmt>30-JAN-11 10:50:26</cmt>
        <desc>30-JAN-11 10:50:26</desc>
        <sym>Drinking Water</sym>
        <extensions>
            <gpxx:WaypointExtension xmlns:gpxx="http://www.garmin.com/xmlschemas/GpxExtensions/v3">
                <gpxx:DisplayMode>SymbolOnly</gpxx:DisplayMode>
            </gpxx:WaypointExtension>
        </extensions>
    </wpt>
    <trk>
        <name>January 2011 - Sunday</name>
        <extensions>
            <gpxx:TrackExtension xmlns:gpxx="http://www.garmin.com/xmlschemas/GpxExtensions/v3">
                <gpxx:DisplayColor>Green</gpxx:DisplayColor>
            </gpxx:TrackExtension>
        </extensions>
        <trkseg>
            <trkpt lon="99.680569" lat="12.900104">
                <ele>103.959717</ele>
                <time>2011-01-30T03:01:06Z</time>
            </trkpt>
            <trkpt lon="99.678365" lat="12.899662">
                <ele>104.440430</ele>
                <time>2011-01-30T03:02:25Z</time>
            </trkpt>
            <trkpt lon="99.678114" lat="12.899023">
                <ele>107.324341</ele>
                <time>2011-01-30T03:02:55Z</time>
            </trkpt>
            <trkpt lon="99.678100" lat="12.898179">
                <ele>170.771362</ele>
                <time>2011-01-30T03:03:52Z</time>
            </trkpt>
            <trkpt lon="99.678552" lat="12.897868">
                <ele>144.815796</ele>
                <time>2011-01-30T03:04:19Z</time>
            </trkpt>
            <trkpt lon="99.680430" lat="12.897107">
                <ele>122.705444</ele>
                <time>2011-01-30T03:05:04Z</time>
            </trkpt>
            <trkpt lon="99.680779" lat="12.897179">
                <ele>119.821411</ele>
                <time>2011-01-30T03:05:10Z</time>
            </trkpt>
            <trkpt lon="99.682406" lat="12.898614">
                <ele>104.921020</ele>
                <time>2011-01-30T03:05:35Z</time>
            </trkpt>
            <trkpt lon="99.682763" lat="12.898615">
                <ele>103.959717</ele>
                <time>2011-01-30T03:05:43Z</time>
            </trkpt>
            <trkpt lon="99.685426" lat="12.896993">
                <ele>107.805054</ele>
                <time>2011-01-30T03:06:58Z</time>
            </trkpt>
            <trkpt lon="99.686480" lat="12.896635">
                <ele>114.053589</ele>
                <time>2011-01-30T03:07:34Z</time>
            </trkpt>
            <trkpt lon="99.689120" lat="12.895737">
                <ele>99.633789</ele>
                <time>2011-01-30T03:08:31Z</time>
            </trkpt>
            <trkpt lon="99.689351" lat="12.895764">
                <ele>98.191895</ele>
                <time>2011-01-30T03:08:36Z</time>
            </trkpt>
            <trkpt lon="99.689940" lat="12.896247">
                <ele>95.788452</ele>
                <time>2011-01-30T03:08:57Z</time>
            </trkpt>
            <trkpt lon="99.690625" lat="12.896390">
                <ele>93.385132</ele>
                <time>2011-01-30T03:09:09Z</time>
            </trkpt>
            <trkpt lon="99.691399" lat="12.896733">
                <ele>89.539917</ele>
                <time>2011-01-30T03:09:25Z</time>
            </trkpt>
            <trkpt lon="99.691601" lat="12.896594">
                <ele>89.059326</ele>
                <time>2011-01-30T03:09:33Z</time>
            </trkpt>
            <trkpt lon="99.692061" lat="12.895871">
                <ele>87.617188</ele>
                <time>2011-01-30T03:09:48Z</time>
            </trkpt>
            <trkpt lon="99.693139" lat="12.892816">
                <ele>83.771973</ele>
                <time>2011-01-30T03:10:37Z</time>
            </trkpt>
            <trkpt lon="99.693656" lat="12.890963">
                <ele>76.081421</ele>
                <time>2011-01-30T03:11:03Z</time>
            </trkpt>
            <trkpt lon="99.692368" lat="12.890901">
                <ele>78.004028</ele>
                <time>2011-01-30T03:11:45Z</time>
            </trkpt>
            <trkpt lon="99.692174" lat="12.890707">
                <ele>78.965454</ele>
                <time>2011-01-30T03:11:57Z</time>
            </trkpt>
            <trkpt lon="99.691152" lat="12.890409">
                <ele>84.733398</ele>
                <time>2011-01-30T03:12:35Z</time>
            </trkpt>
            <trkpt lon="99.690460" lat="12.889741">
                <ele>88.098022</ele>
                <time>2011-01-30T03:13:16Z</time>
            </trkpt>
            <trkpt lon="99.689911" lat="12.889603">
                <ele>91.462524</ele>
                <time>2011-01-30T03:13:41Z</time>
            </trkpt>
            <trkpt lon="99.689696" lat="12.889348">
                <ele>91.943237</ele>
                <time>2011-01-30T03:13:53Z</time>
            </trkpt>
            <trkpt lon="99.688645" lat="12.888401">
                <ele>88.578735</ele>
                <time>2011-01-30T03:14:43Z</time>
            </trkpt>
            <trkpt lon="99.688589" lat="12.887616">
                <ele>86.656006</ele>
                <time>2011-01-30T03:15:16Z</time>
            </trkpt>
            <trkpt lon="99.688680" lat="12.887364">
                <ele>84.733398</ele>
                <time>2011-01-30T03:15:26Z</time>
            </trkpt>
            <trkpt lon="99.688404" lat="12.887182">
                <ele>81.368774</ele>
                <time>2011-01-30T03:15:38Z</time>
            </trkpt>
            <trkpt lon="99.687167" lat="12.887637">
                <ele>88.578735</ele>
                <time>2011-01-30T03:16:29Z</time>
            </trkpt>
            <trkpt lon="99.686802" lat="12.887734">
                <ele>89.539917</ele>
                <time>2011-01-30T03:16:50Z</time>
            </trkpt>
            <trkpt lon="99.686195" lat="12.888171">
                <ele>93.385132</ele>
                <time>2011-01-30T03:17:22Z</time>
            </trkpt>
            <trkpt lon="99.684306" lat="12.888550">
                <ele>90.501343</ele>
                <time>2011-01-30T03:18:25Z</time>
            </trkpt>
            <trkpt lon="99.683821" lat="12.888861">
                <ele>92.423950</ele>
                <time>2011-01-30T03:18:44Z</time>
            </trkpt>
            <trkpt lon="99.683436" lat="12.888732">
                <ele>93.865845</ele>
                <time>2011-01-30T03:18:59Z</time>
            </trkpt>
            <trkpt lon="99.683021" lat="12.888487">
                <ele>91.462524</ele>
                <time>2011-01-30T03:19:18Z</time>
            </trkpt>
            <trkpt lon="99.682514" lat="12.888491">
                <ele>95.307739</ele>
                <time>2011-01-30T03:21:05Z</time>
            </trkpt>
            <trkpt lon="99.682155" lat="12.888426">
                <ele>92.904541</ele>
                <time>2011-01-30T03:21:35Z</time>
            </trkpt>
            <trkpt lon="99.681498" lat="12.888506">
                <ele>97.711182</ele>
                <time>2011-01-30T03:22:07Z</time>
            </trkpt>
            <trkpt lon="99.681032" lat="12.888655">
                <ele>96.749878</ele>
                <time>2011-01-30T03:22:25Z</time>
            </trkpt>
            <trkpt lon="99.680715" lat="12.888949">
                <ele>100.114502</ele>
                <time>2011-01-30T03:23:44Z</time>
            </trkpt>
            <trkpt lon="99.680399" lat="12.888991">
                <ele>97.230469</ele>
                <time>2011-01-30T03:24:43Z</time>
            </trkpt>
            <trkpt lon="99.680465" lat="12.888817">
                <ele>90.981934</ele>
                <time>2011-01-30T03:24:47Z</time>
            </trkpt>
            <trkpt lon="99.680319" lat="12.889021">
                <ele>96.269287</ele>
                <time>2011-01-30T03:25:32Z</time>
            </trkpt>
            <trkpt lon="99.680252" lat="12.889119">
                <ele>94.827148</ele>
                <time>2011-01-30T03:25:51Z</time>
            </trkpt>
            <trkpt lon="99.680030" lat="12.889256">
                <ele>94.827148</ele>
                <time>2011-01-30T03:27:32Z</time>
            </trkpt>
            <trkpt lon="99.678884" lat="12.889361">
                <ele>91.943237</ele>
                <time>2011-01-30T03:29:37Z</time>
            </trkpt>
            <trkpt lon="99.678339" lat="12.889531">
                <ele>84.733398</ele>
                <time>2011-01-30T03:30:39Z</time>
            </trkpt>
            <trkpt lon="99.677848" lat="12.889346">
                <ele>81.368774</ele>
                <time>2011-01-30T03:31:03Z</time>
            </trkpt>
            <trkpt lon="99.677262" lat="12.889342">
                <ele>72.236206</ele>
                <time>2011-01-30T03:31:50Z</time>
            </trkpt>
            <trkpt lon="99.676562" lat="12.888852">
                <ele>70.794190</ele>
                <time>2011-01-30T03:32:27Z</time>
            </trkpt>
            <trkpt lon="99.676419" lat="12.888575">
                <ele>70.313477</ele>
                <time>2011-01-30T03:32:37Z</time>
            </trkpt>
            <trkpt lon="99.675689" lat="12.888334">
                <ele>65.507080</ele>
                <time>2011-01-30T03:33:00Z</time>
            </trkpt>
            <trkpt lon="99.675355" lat="12.888761">
                <ele>65.026367</ele>
                <time>2011-01-30T03:33:17Z</time>
            </trkpt>
            <trkpt lon="99.674417" lat="12.889477">
                <ele>63.584351</ele>
                <time>2011-01-30T03:33:55Z</time>
            </trkpt>
            <trkpt lon="99.672941" lat="12.890740">
                <ele>59.739136</ele>
                <time>2011-01-30T03:35:13Z</time>
            </trkpt>
            <trkpt lon="99.672639" lat="12.890692">
                <ele>59.258423</ele>
                <time>2011-01-30T03:35:22Z</time>
            </trkpt>
            <trkpt lon="99.671075" lat="12.889447">
                <ele>54.932373</ele>
                <time>2011-01-30T03:36:00Z</time>
            </trkpt>
            <trkpt lon="99.669395" lat="12.890139">
                <ele>53.971191</ele>
                <time>2011-01-30T03:36:38Z</time>
            </trkpt>
            <trkpt lon="99.669141" lat="12.889879">
                <ele>54.451782</ele>
                <time>2011-01-30T03:36:50Z</time>
            </trkpt>
            <trkpt lon="99.668921" lat="12.889907">
                <ele>54.932373</ele>
                <time>2011-01-30T03:36:56Z</time>
            </trkpt>
            <trkpt lon="99.668090" lat="12.890208">
                <ele>54.451782</ele>
                <time>2011-01-30T03:37:16Z</time>
            </trkpt>
            <trkpt lon="99.666263" lat="12.890405">
                <ele>49.645264</ele>
                <time>2011-01-30T03:37:52Z</time>
            </trkpt>
            <trkpt lon="99.666041" lat="12.892226">
                <ele>57.335815</ele>
                <time>2011-01-30T03:38:59Z</time>
            </trkpt>
            <trkpt lon="99.665820" lat="12.892820">
                <ele>58.297119</ele>
                <time>2011-01-30T03:39:19Z</time>
            </trkpt>
            <trkpt lon="99.665904" lat="12.893159">
                <ele>56.374512</ele>
                <time>2011-01-30T03:39:33Z</time>
            </trkpt>
            <trkpt lon="99.665103" lat="12.894381">
                <ele>58.297119</ele>
                <time>2011-01-30T03:40:17Z</time>
            </trkpt>
            <trkpt lon="99.663781" lat="12.895528">
                <ele>54.451782</ele>
                <time>2011-01-30T03:40:54Z</time>
            </trkpt>
            <trkpt lon="99.662500" lat="12.896332">
                <ele>55.893799</ele>
                <time>2011-01-30T03:41:26Z</time>
            </trkpt>
            <trkpt lon="99.661210" lat="12.897015">
                <ele>55.413086</ele>
                <time>2011-01-30T03:41:57Z</time>
            </trkpt>
            <trkpt lon="99.661507" lat="12.897702">
                <ele>56.374512</ele>
                <time>2011-01-30T03:42:17Z</time>
            </trkpt>
            <trkpt lon="99.661140" lat="12.898069">
                <ele>57.816528</ele>
                <time>2011-01-30T03:42:34Z</time>
            </trkpt>
            <trkpt lon="99.660987" lat="12.898666">
                <ele>57.335815</ele>
                <time>2011-01-30T03:42:52Z</time>
            </trkpt>
            <trkpt lon="99.659006" lat="12.898721">
                <ele>57.335815</ele>
                <time>2011-01-30T03:43:40Z</time>
            </trkpt>
            <trkpt lon="99.658134" lat="12.898994">
                <ele>61.661743</ele>
                <time>2011-01-30T03:44:15Z</time>
            </trkpt>
            <trkpt lon="99.656628" lat="12.899659">
                <ele>57.816528</ele>
                <time>2011-01-30T03:44:45Z</time>
            </trkpt>
            <trkpt lon="99.654334" lat="12.900001">
                <ele>57.816528</ele>
                <time>2011-01-30T03:45:25Z</time>
            </trkpt>
            <trkpt lon="99.654213" lat="12.900785">
                <ele>56.855103</ele>
                <time>2011-01-30T03:45:49Z</time>
            </trkpt>
            <trkpt lon="99.654101" lat="12.900907">
                <ele>55.893799</ele>
                <time>2011-01-30T03:45:53Z</time>
            </trkpt>
            <trkpt lon="99.652864" lat="12.901516">
                <ele>53.971191</ele>
                <time>2011-01-30T03:46:21Z</time>
            </trkpt>
            <trkpt lon="99.652805" lat="12.901795">
                <ele>53.490479</ele>
                <time>2011-01-30T03:46:29Z</time>
            </trkpt>
            <trkpt lon="99.653625" lat="12.904982">
                <ele>57.335815</ele>
                <time>2011-01-30T03:47:52Z</time>
            </trkpt>
            <trkpt lon="99.652465" lat="12.905599">
                <ele>55.413086</ele>
                <time>2011-01-30T03:48:20Z</time>
            </trkpt>
            <trkpt lon="99.652435" lat="12.906140">
                <ele>55.893799</ele>
                <time>2011-01-30T03:48:34Z</time>
            </trkpt>
            <trkpt lon="99.651791" lat="12.906852">
                <ele>57.335815</ele>
                <time>2011-01-30T03:49:03Z</time>
            </trkpt>
            <trkpt lon="99.651120" lat="12.906461">
                <ele>59.258423</ele>
                <time>2011-01-30T03:49:23Z</time>
            </trkpt>
            <trkpt lon="99.649271" lat="12.906316">
                <ele>76.562134</ele>
                <time>2011-01-30T03:51:55Z</time>
            </trkpt>
            <trkpt lon="99.649071" lat="12.906401">
                <ele>65.026367</ele>
                <time>2011-01-30T04:02:29Z</time>
            </trkpt>
            <trkpt lon="99.649005" lat="12.906273">
                <ele>64.065063</ele>
                <time>2011-01-30T04:02:35Z</time>
            </trkpt>
            <trkpt lon="99.648932" lat="12.903861">
                <ele>56.374512</ele>
                <time>2011-01-30T04:03:31Z</time>
            </trkpt>
            <trkpt lon="99.648311" lat="12.900944">
                <ele>57.335815</ele>
                <time>2011-01-30T04:04:37Z</time>
            </trkpt>
            <trkpt lon="99.648177" lat="12.899840">
                <ele>50.606567</ele>
                <time>2011-01-30T04:04:56Z</time>
            </trkpt>
            <trkpt lon="99.648625" lat="12.898661">
                <ele>47.241821</ele>
                <time>2011-01-30T04:05:15Z</time>
            </trkpt>
            <trkpt lon="99.649074" lat="12.897971">
                <ele>47.241821</ele>
                <time>2011-01-30T04:05:28Z</time>
            </trkpt>
            <trkpt lon="99.649525" lat="12.897665">
                <ele>48.683960</ele>
                <time>2011-01-30T04:05:38Z</time>
            </trkpt>
            <trkpt lon="99.649596" lat="12.897505">
                <ele>49.645264</ele>
                <time>2011-01-30T04:05:43Z</time>
            </trkpt>
            <trkpt lon="99.649405" lat="12.897008">
                <ele>50.125977</ele>
                <time>2011-01-30T04:05:59Z</time>
            </trkpt>
            <trkpt lon="99.649096" lat="12.896985">
                <ele>51.567871</ele>
                <time>2011-01-30T04:06:14Z</time>
            </trkpt>
            <trkpt lon="99.648719" lat="12.897240">
                <ele>55.893799</ele>
                <time>2011-01-30T04:06:33Z</time>
            </trkpt>
            <trkpt lon="99.648339" lat="12.897429">
                <ele>57.335815</ele>
                <time>2011-01-30T04:06:46Z</time>
            </trkpt>
            <trkpt lon="99.647576" lat="12.897723">
                <ele>58.297119</ele>
                <time>2011-01-30T04:07:04Z</time>
            </trkpt>
            <trkpt lon="99.646654" lat="12.898378">
                <ele>58.777710</ele>
                <time>2011-01-30T04:07:33Z</time>
            </trkpt>
            <trkpt lon="99.646162" lat="12.898564">
                <ele>58.297119</ele>
                <time>2011-01-30T04:07:45Z</time>
            </trkpt>
            <trkpt lon="99.645537" lat="12.898174">
                <ele>58.297119</ele>
                <time>2011-01-30T04:08:04Z</time>
            </trkpt>
            <trkpt lon="99.644318" lat="12.899256">
                <ele>57.335815</ele>
                <time>2011-01-30T04:08:42Z</time>
            </trkpt>
            <trkpt lon="99.643576" lat="12.899995">
                <ele>52.048584</ele>
                <time>2011-01-30T04:09:11Z</time>
            </trkpt>
            <trkpt lon="99.643003" lat="12.901103">
                <ele>48.203369</ele>
                <time>2011-01-30T04:09:36Z</time>
            </trkpt>
            <trkpt lon="99.642213" lat="12.901623">
                <ele>55.413086</ele>
                <time>2011-01-30T04:10:02Z</time>
            </trkpt>
            <trkpt lon="99.642046" lat="12.901943">
                <ele>57.816528</ele>
                <time>2011-01-30T04:10:13Z</time>
            </trkpt>
            <trkpt lon="99.641686" lat="12.902674">
                <ele>58.777710</ele>
                <time>2011-01-30T04:10:33Z</time>
            </trkpt>
            <trkpt lon="99.641523" lat="12.903335">
                <ele>58.297119</ele>
                <time>2011-01-30T04:10:49Z</time>
            </trkpt>
            <trkpt lon="99.641344" lat="12.903448">
                <ele>57.816528</ele>
                <time>2011-01-30T04:10:54Z</time>
            </trkpt>
            <trkpt lon="99.639990" lat="12.903247">
                <ele>63.103638</ele>
                <time>2011-01-30T04:11:41Z</time>
            </trkpt>
            <trkpt lon="99.639688" lat="12.903420">
                <ele>65.026367</ele>
                <time>2011-01-30T04:11:53Z</time>
            </trkpt>
            <trkpt lon="99.639017" lat="12.903370">
                <ele>69.832886</ele>
                <time>2011-01-30T04:12:23Z</time>
            </trkpt>
            <trkpt lon="99.638826" lat="12.903760">
                <ele>73.678223</ele>
                <time>2011-01-30T04:12:43Z</time>
            </trkpt>
            <trkpt lon="99.638535" lat="12.904125">
                <ele>74.158813</ele>
                <time>2011-01-30T04:13:00Z</time>
            </trkpt>
            <trkpt lon="99.636506" lat="12.905453">
                <ele>73.678223</ele>
                <time>2011-01-30T04:14:01Z</time>
            </trkpt>
            <trkpt lon="99.636086" lat="12.906719">
                <ele>72.236206</ele>
                <time>2011-01-30T04:14:27Z</time>
            </trkpt>
            <trkpt lon="99.635646" lat="12.907441">
                <ele>73.197632</ele>
                <time>2011-01-30T04:14:52Z</time>
            </trkpt>
            <trkpt lon="99.634408" lat="12.906465">
                <ele>82.810791</ele>
                <time>2011-01-30T04:15:38Z</time>
            </trkpt>
            <trkpt lon="99.633775" lat="12.906113">
                <ele>79.926636</ele>
                <time>2011-01-30T04:15:52Z</time>
            </trkpt>
            <trkpt lon="99.632891" lat="12.905892">
                <ele>79.926636</ele>
                <time>2011-01-30T04:16:11Z</time>
            </trkpt>
            <trkpt lon="99.632614" lat="12.905729">
                <ele>78.965454</ele>
                <time>2011-01-30T04:16:17Z</time>
            </trkpt>
            <trkpt lon="99.632627" lat="12.904957">
                <ele>81.849365</ele>
                <time>2011-01-30T04:16:40Z</time>
            </trkpt>
            <trkpt lon="99.633064" lat="12.903830">
                <ele>92.423950</ele>
                <time>2011-01-30T04:17:34Z</time>
            </trkpt>
            <trkpt lon="99.633024" lat="12.903578">
                <ele>97.230469</ele>
                <time>2011-01-30T04:17:49Z</time>
            </trkpt>
            <trkpt lon="99.632672" lat="12.903604">
                <ele>102.037109</ele>
                <time>2011-01-30T04:18:12Z</time>
            </trkpt>
            <trkpt lon="99.632485" lat="12.903766">
                <ele>101.556397</ele>
                <time>2011-01-30T04:18:23Z</time>
            </trkpt>
            <trkpt lon="99.631606" lat="12.905664">
                <ele>101.075684</ele>
                <time>2011-01-30T04:22:07Z</time>
            </trkpt>
            <trkpt lon="99.631045" lat="12.906070">
                <ele>104.440430</ele>
                <time>2011-01-30T04:22:30Z</time>
            </trkpt>
            <trkpt lon="99.630614" lat="12.906454">
                <ele>104.921020</ele>
                <time>2011-01-30T04:22:44Z</time>
            </trkpt>
            <trkpt lon="99.630142" lat="12.906421">
                <ele>103.959717</ele>
                <time>2011-01-30T04:22:54Z</time>
            </trkpt>
            <trkpt lon="99.629215" lat="12.907652">
                <ele>101.556397</ele>
                <time>2011-01-30T04:23:22Z</time>
            </trkpt>
            <trkpt lon="99.629249" lat="12.908890">
                <ele>98.191895</ele>
                <time>2011-01-30T04:23:49Z</time>
            </trkpt>
            <trkpt lon="99.628776" lat="12.909199">
                <ele>104.921020</ele>
                <time>2011-01-30T04:24:13Z</time>
            </trkpt>
            <trkpt lon="99.628649" lat="12.909615">
                <ele>104.440430</ele>
                <time>2011-01-30T04:24:29Z</time>
            </trkpt>
            <trkpt lon="99.628809" lat="12.909999">
                <ele>103.959717</ele>
                <time>2011-01-30T04:24:41Z</time>
            </trkpt>
            <trkpt lon="99.627875" lat="12.912526">
                <ele>104.921020</ele>
                <time>2011-01-30T04:25:38Z</time>
            </trkpt>
            <trkpt lon="99.626642" lat="12.912854">
                <ele>106.363037</ele>
                <time>2011-01-30T04:26:09Z</time>
            </trkpt>
            <trkpt lon="99.626329" lat="12.913498">
                <ele>107.805054</ele>
                <time>2011-01-30T04:26:24Z</time>
            </trkpt>
            <trkpt lon="99.625707" lat="12.914047">
                <ele>108.285645</ele>
                <time>2011-01-30T04:26:42Z</time>
            </trkpt>
            <trkpt lon="99.625606" lat="12.914468">
                <ele>108.285645</ele>
                <time>2011-01-30T04:26:50Z</time>
            </trkpt>
            <trkpt lon="99.625784" lat="12.915006">
                <ele>106.843628</ele>
                <time>2011-01-30T04:27:00Z</time>
            </trkpt>
            <trkpt lon="99.625896" lat="12.915127">
                <ele>108.766235</ele>
                <time>2011-01-30T04:27:06Z</time>
            </trkpt>
            <trkpt lon="99.626143" lat="12.915078">
                <ele>117.418213</ele>
                <time>2011-01-30T04:27:22Z</time>
            </trkpt>
            <trkpt lon="99.626546" lat="12.915145">
                <ele>115.976196</ele>
                <time>2011-01-30T04:27:40Z</time>
            </trkpt>
            <trkpt lon="99.627894" lat="12.913989">
                <ele>112.611572</ele>
                <time>2011-01-30T04:28:17Z</time>
            </trkpt>
            <trkpt lon="99.628048" lat="12.914092">
                <ele>111.650269</ele>
                <time>2011-01-30T04:28:21Z</time>
            </trkpt>
            <trkpt lon="99.631801" lat="12.919894">
                <ele>104.440430</ele>
                <time>2011-01-30T04:30:46Z</time>
            </trkpt>
            <trkpt lon="99.633001" lat="12.920203">
                <ele>93.385132</ele>
                <time>2011-01-30T04:31:06Z</time>
            </trkpt>
            <trkpt lon="99.633768" lat="12.920249">
                <ele>88.578735</ele>
                <time>2011-01-30T04:31:15Z</time>
            </trkpt>
            <trkpt lon="99.634402" lat="12.919896">
                <ele>85.694580</ele>
                <time>2011-01-30T04:31:27Z</time>
            </trkpt>
            <trkpt lon="99.634349" lat="12.919710">
                <ele>83.771973</ele>
                <time>2011-01-30T04:31:43Z</time>
            </trkpt>
            <trkpt lon="99.635740" lat="12.920637">
                <ele>81.849365</ele>
                <time>2011-01-30T04:31:56Z</time>
            </trkpt>
            <trkpt lon="99.637128" lat="12.921146">
                <ele>70.313477</ele>
                <time>2011-01-30T04:32:27Z</time>
            </trkpt>
            <trkpt lon="99.638648" lat="12.920949">
                <ele>70.313477</ele>
                <time>2011-01-30T04:33:16Z</time>
            </trkpt>
            <trkpt lon="99.640377" lat="12.920390">
                <ele>75.600830</ele>
                <time>2011-01-30T04:34:24Z</time>
            </trkpt>
            <trkpt lon="99.641371" lat="12.920146">
                <ele>76.562134</ele>
                <time>2011-01-30T04:34:57Z</time>
            </trkpt>
            <trkpt lon="99.641935" lat="12.919904">
                <ele>78.484741</ele>
                <time>2011-01-30T04:35:17Z</time>
            </trkpt>
            <trkpt lon="99.642813" lat="12.919136">
                <ele>83.771973</ele>
                <time>2011-01-30T04:36:07Z</time>
            </trkpt>
            <trkpt lon="99.644405" lat="12.919072">
                <ele>87.617188</ele>
                <time>2011-01-30T04:37:14Z</time>
            </trkpt>
            <trkpt lon="99.645071" lat="12.919134">
                <ele>87.617188</ele>
                <time>2011-01-30T04:37:35Z</time>
            </trkpt>
            <trkpt lon="99.645015" lat="12.919946">
                <ele>94.346558</ele>
                <time>2011-01-30T04:38:18Z</time>
            </trkpt>
            <trkpt lon="99.645206" lat="12.921207">
                <ele>91.462524</ele>
                <time>2011-01-30T04:38:50Z</time>
            </trkpt>
            <trkpt lon="99.645348" lat="12.921470">
                <ele>90.981934</ele>
                <time>2011-01-30T04:38:58Z</time>
            </trkpt>
            <trkpt lon="99.645649" lat="12.921495">
                <ele>89.059326</ele>
                <time>2011-01-30T04:39:05Z</time>
            </trkpt>
            <trkpt lon="99.645584" lat="12.923716">
                <ele>92.423950</ele>
                <time>2011-01-30T04:46:14Z</time>
            </trkpt>
            <trkpt lon="99.643956" lat="12.923840">
                <ele>100.114502</ele>
                <time>2011-01-30T04:47:24Z</time>
            </trkpt>
            <trkpt lon="99.643489" lat="12.924049">
                <ele>101.556397</ele>
                <time>2011-01-30T04:47:42Z</time>
            </trkpt>
            <trkpt lon="99.643171" lat="12.924422">
                <ele>102.037109</ele>
                <time>2011-01-30T04:47:56Z</time>
            </trkpt>
            <trkpt lon="99.643161" lat="12.924635">
                <ele>101.075684</ele>
                <time>2011-01-30T04:48:02Z</time>
            </trkpt>
            <trkpt lon="99.643905" lat="12.925377">
                <ele>98.191895</ele>
                <time>2011-01-30T04:48:38Z</time>
            </trkpt>
            <trkpt lon="99.644231" lat="12.925453">
                <ele>97.711182</ele>
                <time>2011-01-30T04:48:45Z</time>
            </trkpt>
            <trkpt lon="99.644860" lat="12.925397">
                <ele>87.136597</ele>
                <time>2011-01-30T04:48:59Z</time>
            </trkpt>
            <trkpt lon="99.645121" lat="12.925322">
                <ele>93.865845</ele>
                <time>2011-01-30T04:49:15Z</time>
            </trkpt>
            <trkpt lon="99.645298" lat="12.924948">
                <ele>98.672485</ele>
                <time>2011-01-30T04:49:42Z</time>
            </trkpt>
            <trkpt lon="99.645537" lat="12.924939">
                <ele>103.959717</ele>
                <time>2011-01-30T04:49:58Z</time>
            </trkpt>
            <trkpt lon="99.645780" lat="12.925155">
                <ele>106.843628</ele>
                <time>2011-01-30T04:50:15Z</time>
            </trkpt>
            <trkpt lon="99.645874" lat="12.925178">
                <ele>113.572998</ele>
                <time>2011-01-30T04:50:22Z</time>
            </trkpt>
            <trkpt lon="99.646272" lat="12.925199">
                <ele>127.031372</ele>
                <time>2011-01-30T04:51:08Z</time>
            </trkpt>
            <trkpt lon="99.646455" lat="12.925268">
                <ele>128.954102</ele>
                <time>2011-01-30T04:51:26Z</time>
            </trkpt>
            <trkpt lon="99.646616" lat="12.925355">
                <ele>132.799316</ele>
                <time>2011-01-30T04:51:43Z</time>
            </trkpt>
            <trkpt lon="99.646729" lat="12.925448">
                <ele>132.799316</ele>
                <time>2011-01-30T04:51:57Z</time>
            </trkpt>
            <trkpt lon="99.646725" lat="12.925543">
                <ele>137.605835</ele>
                <time>2011-01-30T04:52:17Z</time>
            </trkpt>
            <trkpt lon="99.646567" lat="12.926035">
                <ele>138.086548</ele>
                <time>2011-01-30T04:52:42Z</time>
            </trkpt>
            <trkpt lon="99.646691" lat="12.926331">
                <ele>138.086548</ele>
                <time>2011-01-30T04:52:52Z</time>
            </trkpt>
            <trkpt lon="99.648391" lat="12.927450">
                <ele>131.357300</ele>
                <time>2011-01-30T04:53:57Z</time>
            </trkpt>
            <trkpt lon="99.649264" lat="12.927770">
                <ele>123.186157</ele>
                <time>2011-01-30T04:54:30Z</time>
            </trkpt>
            <trkpt lon="99.649761" lat="12.927501">
                <ele>119.821411</ele>
                <time>2011-01-30T04:54:32Z</time>
            </trkpt>
            <trkpt lon="99.649899" lat="12.927837">
                <ele>113.572998</ele>
                <time>2011-01-30T04:54:40Z</time>
            </trkpt>
            <trkpt lon="99.649900" lat="12.929050">
                <ele>122.224731</ele>
                <time>2011-01-30T04:55:14Z</time>
            </trkpt>
            <trkpt lon="99.650157" lat="12.929780">
                <ele>127.031372</ele>
                <time>2011-01-30T04:55:48Z</time>
            </trkpt>
            <trkpt lon="99.650258" lat="12.929957">
                <ele>127.992554</ele>
                <time>2011-01-30T04:56:01Z</time>
            </trkpt>
            <trkpt lon="99.650627" lat="12.929776">
                <ele>120.302124</ele>
                <time>2011-01-30T04:56:06Z</time>
            </trkpt>
            <trkpt lon="99.650533" lat="12.930394">
                <ele>129.915283</ele>
                <time>2011-01-30T04:56:39Z</time>
            </trkpt>
            <trkpt lon="99.650764" lat="12.930374">
                <ele>131.357300</ele>
                <time>2011-01-30T04:56:42Z</time>
            </trkpt>
            <trkpt lon="99.650682" lat="12.930671">
                <ele>140.009155</ele>
                <time>2011-01-30T04:57:03Z</time>
            </trkpt>
            <trkpt lon="99.650688" lat="12.931163">
                <ele>148.180420</ele>
                <time>2011-01-30T04:57:38Z</time>
            </trkpt>
            <trkpt lon="99.651226" lat="12.931416">
                <ele>152.506348</ele>
                <time>2011-01-30T04:58:12Z</time>
            </trkpt>
            <trkpt lon="99.651515" lat="12.931613">
                <ele>153.948364</ele>
                <time>2011-01-30T04:58:27Z</time>
            </trkpt>
            <trkpt lon="99.651587" lat="12.931646">
                <ele>155.390259</ele>
                <time>2011-01-30T04:58:43Z</time>
            </trkpt>
            <trkpt lon="99.651762" lat="12.931317">
                <ele>154.909546</ele>
                <time>2011-01-30T04:58:56Z</time>
            </trkpt>
            <trkpt lon="99.651778" lat="12.930579">
                <ele>154.428955</ele>
                <time>2011-01-30T04:59:18Z</time>
            </trkpt>
            <trkpt lon="99.652571" lat="12.930323">
                <ele>154.909546</ele>
                <time>2011-01-30T04:59:46Z</time>
            </trkpt>
            <trkpt lon="99.652347" lat="12.929701">
                <ele>157.793579</ele>
                <time>2011-01-30T05:00:19Z</time>
            </trkpt>
            <trkpt lon="99.652745" lat="12.929367">
                <ele>162.600098</ele>
                <time>2011-01-30T05:00:49Z</time>
            </trkpt>
            <trkpt lon="99.652986" lat="12.929497">
                <ele>163.561523</ele>
                <time>2011-01-30T05:01:06Z</time>
            </trkpt>
            <trkpt lon="99.653608" lat="12.930352">
                <ele>154.909546</ele>
                <time>2011-01-30T05:01:39Z</time>
            </trkpt>
            <trkpt lon="99.653959" lat="12.930229">
                <ele>155.870972</ele>
                <time>2011-01-30T05:01:50Z</time>
            </trkpt>
            <trkpt lon="99.654418" lat="12.929663">
                <ele>157.793579</ele>
                <time>2011-01-30T05:02:17Z</time>
            </trkpt>
            <trkpt lon="99.655249" lat="12.929277">
                <ele>158.754761</ele>
                <time>2011-01-30T05:02:51Z</time>
            </trkpt>
            <trkpt lon="99.656177" lat="12.929557">
                <ele>154.428955</ele>
                <time>2011-01-30T05:03:17Z</time>
            </trkpt>
            <trkpt lon="99.657305" lat="12.929620">
                <ele>160.677490</ele>
                <time>2011-01-30T05:04:22Z</time>
            </trkpt>
            <trkpt lon="99.657532" lat="12.929730">
                <ele>158.754761</ele>
                <time>2011-01-30T05:04:46Z</time>
            </trkpt>
            <trkpt lon="99.657373" lat="12.930029">
                <ele>158.274170</ele>
                <time>2011-01-30T05:04:58Z</time>
            </trkpt>
            <trkpt lon="99.656991" lat="12.930329">
                <ele>158.754761</ele>
                <time>2011-01-30T05:05:12Z</time>
            </trkpt>
            <trkpt lon="99.656718" lat="12.930567">
                <ele>151.064209</ele>
                <time>2011-01-30T05:05:32Z</time>
            </trkpt>
            <trkpt lon="99.657900" lat="12.931679">
                <ele>142.412476</ele>
                <time>2011-01-30T05:06:28Z</time>
            </trkpt>
            <trkpt lon="99.658304" lat="12.932460">
                <ele>137.125244</ele>
                <time>2011-01-30T05:06:56Z</time>
            </trkpt>
            <trkpt lon="99.659267" lat="12.932301">
                <ele>146.257812</ele>
                <time>2011-01-30T05:07:38Z</time>
            </trkpt>
            <trkpt lon="99.660700" lat="12.931330">
                <ele>144.335205</ele>
                <time>2011-01-30T05:08:26Z</time>
            </trkpt>
            <trkpt lon="99.660884" lat="12.930105">
                <ele>141.931763</ele>
                <time>2011-01-30T05:08:53Z</time>
            </trkpt>
            <trkpt lon="99.661344" lat="12.929694">
                <ele>140.489868</ele>
                <time>2011-01-30T05:09:16Z</time>
            </trkpt>
            <trkpt lon="99.661424" lat="12.929628">
                <ele>137.125244</ele>
                <time>2011-01-30T05:09:27Z</time>
            </trkpt>
            <trkpt lon="99.661624" lat="12.929426">
                <ele>136.163940</ele>
                <time>2011-01-30T05:09:46Z</time>
            </trkpt>
            <trkpt lon="99.661728" lat="12.929364">
                <ele>137.605835</ele>
                <time>2011-01-30T05:09:58Z</time>
            </trkpt>
            <trkpt lon="99.661764" lat="12.929323">
                <ele>135.683106</ele>
                <time>2011-01-30T05:10:02Z</time>
            </trkpt>
            <trkpt lon="99.662718" lat="12.928750">
                <ele>137.605835</ele>
                <time>2011-01-30T05:10:57Z</time>
            </trkpt>
            <trkpt lon="99.663025" lat="12.928221">
                <ele>135.202515</ele>
                <time>2011-01-30T05:11:12Z</time>
            </trkpt>
            <trkpt lon="99.663400" lat="12.927917">
                <ele>132.799316</ele>
                <time>2011-01-30T05:11:22Z</time>
            </trkpt>
            <trkpt lon="99.663418" lat="12.927667">
                <ele>132.799316</ele>
                <time>2011-01-30T05:11:32Z</time>
            </trkpt>
            <trkpt lon="99.664563" lat="12.928750">
                <ele>128.473389</ele>
                <time>2011-01-30T05:12:10Z</time>
            </trkpt>
            <trkpt lon="99.665666" lat="12.930576">
                <ele>120.782837</ele>
                <time>2011-01-30T05:12:42Z</time>
            </trkpt>
            <trkpt lon="99.666124" lat="12.930948">
                <ele>124.147339</ele>
                <time>2011-01-30T05:13:13Z</time>
            </trkpt>
            <trkpt lon="99.666478" lat="12.931181">
                <ele>123.666748</ele>
                <time>2011-01-30T05:13:27Z</time>
            </trkpt>
            <trkpt lon="99.666605" lat="12.931222">
                <ele>123.186157</ele>
                <time>2011-01-30T05:13:30Z</time>
            </trkpt>
            <trkpt lon="99.667305" lat="12.931112">
                <ele>122.224731</ele>
                <time>2011-01-30T05:13:43Z</time>
            </trkpt>
            <trkpt lon="99.668225" lat="12.930615">
                <ele>122.705444</ele>
                <time>2011-01-30T05:14:01Z</time>
            </trkpt>
            <trkpt lon="99.669898" lat="12.929556">
                <ele>121.744141</ele>
                <time>2011-01-30T05:14:33Z</time>
            </trkpt>
            <trkpt lon="99.670750" lat="12.929415">
                <ele>121.744141</ele>
                <time>2011-01-30T05:14:48Z</time>
            </trkpt>
            <trkpt lon="99.671009" lat="12.929426">
                <ele>121.263550</ele>
                <time>2011-01-30T05:14:55Z</time>
            </trkpt>
            <trkpt lon="99.671557" lat="12.928956">
                <ele>119.821411</ele>
                <time>2011-01-30T05:15:08Z</time>
            </trkpt>
            <trkpt lon="99.671553" lat="12.927309">
                <ele>109.727661</ele>
                <time>2011-01-30T05:15:54Z</time>
            </trkpt>
            <trkpt lon="99.671753" lat="12.926583">
                <ele>110.208252</ele>
                <time>2011-01-30T05:16:09Z</time>
            </trkpt>
            <trkpt lon="99.671576" lat="12.925298">
                <ele>115.976196</ele>
                <time>2011-01-30T05:16:57Z</time>
            </trkpt>
            <trkpt lon="99.672029" lat="12.925101">
                <ele>115.976196</ele>
                <time>2011-01-30T05:17:12Z</time>
            </trkpt>
            <trkpt lon="99.672947" lat="12.924198">
                <ele>118.379395</ele>
                <time>2011-01-30T05:18:27Z</time>
            </trkpt>
            <trkpt lon="99.674005" lat="12.923115">
                <ele>118.860107</ele>
                <time>2011-01-30T05:19:25Z</time>
            </trkpt>
            <trkpt lon="99.675313" lat="12.922116">
                <ele>115.976196</ele>
                <time>2011-01-30T05:19:58Z</time>
            </trkpt>
            <trkpt lon="99.675635" lat="12.921964">
                <ele>114.053589</ele>
                <time>2011-01-30T05:20:05Z</time>
            </trkpt>
            <trkpt lon="99.676709" lat="12.921682">
                <ele>101.556397</ele>
                <time>2011-01-30T05:20:35Z</time>
            </trkpt>
            <trkpt lon="99.677798" lat="12.921099">
                <ele>95.788452</ele>
                <time>2011-01-30T05:20:57Z</time>
            </trkpt>
            <trkpt lon="99.678133" lat="12.920629">
                <ele>95.307739</ele>
                <time>2011-01-30T05:21:08Z</time>
            </trkpt>
            <trkpt lon="99.678339" lat="12.920023">
                <ele>95.307739</ele>
                <time>2011-01-30T05:21:20Z</time>
            </trkpt>
            <trkpt lon="99.678689" lat="12.919020">
                <ele>94.346558</ele>
                <time>2011-01-30T05:21:40Z</time>
            </trkpt>
            <trkpt lon="99.678843" lat="12.917828">
                <ele>90.020630</ele>
                <time>2011-01-30T05:22:02Z</time>
            </trkpt>
            <trkpt lon="99.679213" lat="12.916820">
                <ele>88.098022</ele>
                <time>2011-01-30T05:22:24Z</time>
            </trkpt>
            <trkpt lon="99.679200" lat="12.916701">
                <ele>87.617188</ele>
                <time>2011-01-30T05:22:26Z</time>
            </trkpt>
            <trkpt lon="99.679458" lat="12.916406">
                <ele>88.098022</ele>
                <time>2011-01-30T05:22:35Z</time>
            </trkpt>
            <trkpt lon="99.680650" lat="12.916253">
                <ele>86.175293</ele>
                <time>2011-01-30T05:23:03Z</time>
            </trkpt>
            <trkpt lon="99.680605" lat="12.915496">
                <ele>96.269287</ele>
                <time>2011-01-30T05:23:47Z</time>
            </trkpt>
            <trkpt lon="99.680217" lat="12.914443">
                <ele>90.981934</ele>
                <time>2011-01-30T05:24:17Z</time>
            </trkpt>
            <trkpt lon="99.680392" lat="12.914068">
                <ele>90.020630</ele>
                <time>2011-01-30T05:24:26Z</time>
            </trkpt>
            <trkpt lon="99.680984" lat="12.913793">
                <ele>90.020630</ele>
                <time>2011-01-30T05:24:43Z</time>
            </trkpt>
            <trkpt lon="99.681077" lat="12.913659">
                <ele>89.539917</ele>
                <time>2011-01-30T05:24:54Z</time>
            </trkpt>
            <trkpt lon="99.681018" lat="12.913781">
                <ele>90.981934</ele>
                <time>2011-01-30T05:25:07Z</time>
            </trkpt>
            <trkpt lon="99.681176" lat="12.913773">
                <ele>91.943237</ele>
                <time>2011-01-30T05:25:15Z</time>
            </trkpt>
            <trkpt lon="99.682002" lat="12.910981">
                <ele>99.633789</ele>
                <time>2011-01-30T05:26:53Z</time>
            </trkpt>
            <trkpt lon="99.682502" lat="12.910815">
                <ele>96.749878</ele>
                <time>2011-01-30T05:27:07Z</time>
            </trkpt>
            <trkpt lon="99.683280" lat="12.910247">
                <ele>99.153076</ele>
                <time>2011-01-30T05:27:29Z</time>
            </trkpt>
            <trkpt lon="99.683406" lat="12.909989">
                <ele>99.633789</ele>
                <time>2011-01-30T05:27:39Z</time>
            </trkpt>
            <trkpt lon="99.681441" lat="12.908856">
                <ele>111.169556</ele>
                <time>2011-01-30T05:28:57Z</time>
            </trkpt>
            <trkpt lon="99.681548" lat="12.908574">
                <ele>112.130981</ele>
                <time>2011-01-30T05:29:06Z</time>
            </trkpt>
            <trkpt lon="99.681946" lat="12.907907">
                <ele>111.650269</ele>
                <time>2011-01-30T05:29:23Z</time>
            </trkpt>
            <trkpt lon="99.683144" lat="12.907387">
                <ele>107.805054</ele>
                <time>2011-01-30T05:29:39Z</time>
            </trkpt>
            <trkpt lon="99.683606" lat="12.906676">
                <ele>105.401733</ele>
                <time>2011-01-30T05:29:50Z</time>
            </trkpt>
            <trkpt lon="99.683647" lat="12.905805">
                <ele>104.440430</ele>
                <time>2011-01-30T05:30:02Z</time>
            </trkpt>
            <trkpt lon="99.682911" lat="12.904343">
                <ele>102.998291</ele>
                <time>2011-01-30T05:30:28Z</time>
            </trkpt>
            <trkpt lon="99.682919" lat="12.902998">
                <ele>102.037109</ele>
                <time>2011-01-30T05:30:50Z</time>
            </trkpt>
            <trkpt lon="99.682230" lat="12.902686">
                <ele>100.595093</ele>
                <time>2011-01-30T05:31:06Z</time>
            </trkpt>
            <trkpt lon="99.681580" lat="12.902040">
                <ele>102.998291</ele>
                <time>2011-01-30T05:31:24Z</time>
            </trkpt>
            <trkpt lon="99.681226" lat="12.901203">
                <ele>105.882446</ele>
                <time>2011-01-30T05:31:43Z</time>
            </trkpt>
            <trkpt lon="99.681148" lat="12.900800">
                <ele>105.882446</ele>
                <time>2011-01-30T05:31:53Z</time>
            </trkpt>
            <trkpt lon="99.681336" lat="12.900391">
                <ele>104.440430</ele>
                <time>2011-01-30T05:32:02Z</time>
            </trkpt>
            <trkpt lon="99.681201" lat="12.900267">
                <ele>106.843628</ele>
                <time>2011-01-30T05:32:07Z</time>
            </trkpt>
            <trkpt lon="99.679479" lat="12.899519">
                <ele>114.053589</ele>
                <time>2011-01-30T05:34:01Z</time>
            </trkpt>
        </trkseg>
    </trk>
</gpx>